Time,TemperatureF,DewpointF,PressureIn,WindDirection,WindDirectionDegrees,WindSpeedMPH,WindSpeedGustMPH,Humidity,HourlyPrecipIn,Conditions,Clouds,dailyrainin,SoftwareType,DateUTC
2013-08-12 00:08:00,72.3,67.9,30.04,South,180,3.2,-999.0,86,-99.99,,,0.00,Acu-Link.com,2013-08-12 05:08:00,
2013-08-12 00:23:00,72.0,68.2,30.04,South,180,3.2,-999.0,88,-99.99,,,0.00,Acu-Link.com,2013-08-12 05:23:00,
2013-08-12 00:38:00,72.0,68.2,30.04,South,180,4.2,-999.0,88,-99.99,,,0.00,Acu-Link.com,2013-08-12 05:38:00,
2013-08-12 00:53:00,71.6,68.2,30.04,SW,225,2.7,-999.0,89,-99.99,,,0.00,Acu-Link.com,2013-08-12 05:53:00,
2013-08-12 01:08:00,71.2,67.8,30.03,South,180,3.2,-999.0,89,-99.99,,,0.00,Acu-Link.com,2013-08-12 06:08:00,
2013-08-12 01:24:00,71.2,67.8,30.03,SSW,202,3.7,-999.0,89,-99.99,,,0.00,Acu-Link.com,2013-08-12 06:24:00,
2013-08-12 01:39:00,71.1,67.7,30.03,South,180,3.2,-999.0,89,-99.99,,,0.00,Acu-Link.com,2013-08-12 06:39:00,
2013-08-12 01:54:00,71.1,68.0,30.02,SSW,202,3.2,-999.0,90,-99.99,,,0.00,Acu-Link.com,2013-08-12 06:54:00,
2013-08-12 02:09:00,71.1,67.7,30.02,South,180,2.7,-999.0,89,-99.99,,,0.00,Acu-Link.com,2013-08-12 07:09:00,
2013-08-12 02:24:00,71.1,67.7,30.02,South,180,2.7,-999.0,89,-99.99,,,0.00,Acu-Link.com,2013-08-12 07:24:00,
2013-08-12 02:40:00,71.1,68.0,30.01,SSW,202,2.7,-999.0,90,-99.99,,,0.00,Acu-Link.com,2013-08-12 07:40:00,
2013-08-12 02:55:00,70.9,67.8,30.01,SW,225,2.7,-999.0,90,-99.99,,,0.00,Acu-Link.com,2013-08-12 07:55:00,
2013-08-12 03:11:00,70.9,67.8,30.01,SSW,202,1.7,-999.0,90,-99.99,,,0.00,Acu-Link.com,2013-08-12 08:11:00,
2013-08-12 03:27:00,70.9,67.8,30.01,SSW,202,1.7,-999.0,90,-99.99,,,0.00,Acu-Link.com,2013-08-12 08:27:00,
2013-08-12 03:42:00,70.7,67.6,30.03,South,180,1.7,-999.0,90,-99.99,,,0.00,Acu-Link.com,2013-08-12 08:42:00,
2013-08-12 03:58:00,70.7,67.9,30.02,South,180,1.1,-999.0,91,-99.99,,,0.00,Acu-Link.com,2013-08-12 08:58:00,
2013-08-12 04:13:00,70.5,68.1,30.02,NNE,22,1.7,-999.0,92,-99.99,,,0.00,Acu-Link.com,2013-08-12 09:13:00,
2013-08-12 04:28:00,70.3,68.5,30.04,SSW,202,1.7,-999.0,94,-99.99,,,0.00,Acu-Link.com,2013-08-12 09:28:00,
2013-08-12 04:43:00,70.0,68.5,30.04,NW,315,0.0,-999.0,95,-99.99,,,0.00,Acu-Link.com,2013-08-12 09:43:00,
2013-08-12 04:58:00,69.6,68.7,30.04,SE,135,0.0,-999.0,97,-99.99,,,0.01,Acu-Link.com,2013-08-12 09:58:00,
2013-08-12 05:14:00,69.3,68.7,30.04,SSW,202,0.0,-999.0,98,-99.99,,,0.02,Acu-Link.com,2013-08-12 10:14:00,
2013-08-12 05:29:00,69.1,68.5,30.03,SSE,157,0.0,-999.0,98,-99.99,,,0.04,Acu-Link.com,2013-08-12 10:29:00,
2013-08-12 05:44:00,68.9,68.3,30.02,South,180,0.0,-999.0,98,-99.99,,,0.06,Acu-Link.com,2013-08-12 10:44:00,
2013-08-12 05:59:00,69.1,68.8,30.03,SSW,202,0.0,-999.0,99,-99.99,,,0.07,Acu-Link.com,2013-08-12 10:59:00,
2013-08-12 06:14:00,69.1,68.8,30.02,WSW,247,1.1,-999.0,99,-99.99,,,0.08,Acu-Link.com,2013-08-12 11:14:00,
2013-08-12 06:30:00,68.9,68.6,30.01,South,180,0.0,-999.0,99,-99.99,,,0.08,Acu-Link.com,2013-08-12 11:30:00,
2013-08-12 06:45:00,68.7,68.4,30.00,NW,315,0.0,-999.0,99,-99.99,,,0.08,Acu-Link.com,2013-08-12 11:45:00,
2013-08-12 07:00:00,68.5,68.2,30.00,WNW,292,0.0,-999.0,99,-99.99,,,0.08,Acu-Link.com,2013-08-12 12:00:00,
2013-08-12 07:15:00,68.0,67.7,30.01,NW,315,3.2,-999.0,99,-99.99,,,0.08,Acu-Link.com,2013-08-12 12:15:00,
2013-08-12 07:30:00,68.0,67.7,30.00,NW,315,2.2,-999.0,99,-99.99,,,0.08,Acu-Link.com,2013-08-12 12:30:00,
2013-08-12 07:46:00,68.4,68.1,30.01,South,180,0.0,-999.0,99,-99.99,,,0.08,Acu-Link.com,2013-08-12 12:46:00,
2013-08-12 08:01:00,68.4,68.1,30.03,South,180,0.0,-999.0,99,-99.99,,,0.09,Acu-Link.com,2013-08-12 13:01:00,
2013-08-12 08:16:00,68.7,68.4,30.03,ESE,112,0.0,-999.0,99,-99.99,,,0.09,Acu-Link.com,2013-08-12 13:16:00,
2013-08-12 08:31:00,69.6,69.3,30.03,SE,135,0.0,-999.0,99,-99.99,,,0.09,Acu-Link.com,2013-08-12 13:31:00,
2013-08-12 08:46:00,70.3,69.4,30.04,WNW,292,1.7,-999.0,97,-99.99,,,0.09,Acu-Link.com,2013-08-12 13:46:00,
2013-08-12 09:02:00,71.6,70.7,30.03,ENE,67,0.0,-999.0,97,-99.99,,,0.09,Acu-Link.com,2013-08-12 14:02:00,
2013-08-12 09:17:00,73.9,71.4,30.04,SSW,202,0.0,-999.0,92,-99.99,,,0.09,Acu-Link.com,2013-08-12 14:17:00,
2013-08-12 09:32:00,75.7,70.2,30.04,NW,315,2.2,-999.0,83,-99.99,,,0.09,Acu-Link.com,2013-08-12 14:32:00,
2013-08-12 09:47:00,81.5,71.2,30.04,NNW,337,2.2,-999.0,71,-99.99,,,0.09,Acu-Link.com,2013-08-12 14:47:00,
2013-08-12 10:02:00,82.6,69.2,30.04,West,270,6.8,-999.0,64,-99.99,,,0.09,Acu-Link.com,2013-08-12 15:02:00,
2013-08-12 10:18:00,83.5,69.1,30.04,North,0,2.7,-999.0,62,-99.99,,,0.09,Acu-Link.com,2013-08-12 15:18:00,
2013-08-12 10:33:00,85.3,70.3,30.04,NE,45,2.7,-999.0,61,-99.99,,,0.09,Acu-Link.com,2013-08-12 15:33:00,
2013-08-12 10:48:00,86.7,70.1,30.04,West,270,3.2,-999.0,58,-99.99,,,0.09,Acu-Link.com,2013-08-12 15:48:00,
2013-08-12 11:04:00,87.6,70.5,30.05,NNW,337,3.2,-999.0,57,-99.99,,,0.09,Acu-Link.com,2013-08-12 16:04:00,
2013-08-12 11:19:00,89.2,71.4,30.05,NE,45,3.7,-999.0,56,-99.99,,,0.09,Acu-Link.com,2013-08-12 16:19:00,
2013-08-12 11:34:00,90.0,71.6,30.05,NNE,22,4.2,-999.0,55,-99.99,,,0.09,Acu-Link.com,2013-08-12 16:34:00,
2013-08-12 11:49:00,88.9,71.7,30.05,NNE,22,4.7,-999.0,57,-99.99,,,0.09,Acu-Link.com,2013-08-12 16:49:00,
2013-08-12 12:04:00,88.2,70.0,30.04,North,0,7.8,-999.0,55,-99.99,,,0.09,Acu-Link.com,2013-08-12 17:04:00,
2013-08-12 12:20:00,90.1,71.7,30.04,West,270,3.2,-999.0,55,-99.99,,,0.09,Acu-Link.com,2013-08-12 17:20:00,
2013-08-12 12:35:00,91.4,71.3,30.04,East,90,3.2,-999.0,52,-99.99,,,0.09,Acu-Link.com,2013-08-12 17:35:00,
2013-08-12 12:50:00,87.6,71.5,30.03,NW,315,7.8,-999.0,59,-99.99,,,0.09,Acu-Link.com,2013-08-12 17:50:00,
2013-08-12 13:05:00,89.8,71.4,30.02,NNW,337,6.3,-999.0,55,-99.99,,,0.09,Acu-Link.com,2013-08-12 18:05:00,
2013-08-12 13:21:00,89.2,71.4,30.03,NNW,337,5.8,-999.0,56,-99.99,,,0.09,Acu-Link.com,2013-08-12 18:21:00,
2013-08-12 13:36:00,84.7,71.1,30.02,NNE,22,7.8,-999.0,64,-99.99,,,0.09,Acu-Link.com,2013-08-12 18:36:00,
2013-08-12 13:51:00,83.7,71.6,30.02,NNW,337,8.3,-999.0,67,-99.99,,,0.09,Acu-Link.com,2013-08-12 18:51:00,
2013-08-12 14:06:00,83.7,71.6,30.02,NNW,337,10.9,-999.0,67,-99.99,,,0.09,Acu-Link.com,2013-08-12 19:06:00,
2013-08-12 14:21:00,88.2,72.0,30.02,NW,315,4.7,-999.0,59,-99.99,,,0.09,Acu-Link.com,2013-08-12 19:21:00,
2013-08-12 14:37:00,87.3,72.2,30.02,NW,315,9.9,-999.0,61,-99.99,,,0.09,Acu-Link.com,2013-08-12 19:37:00,
2013-08-12 14:52:00,85.8,70.3,30.02,North,0,5.8,-999.0,60,-99.99,,,0.09,Acu-Link.com,2013-08-12 19:52:00,
2013-08-12 15:07:00,88.0,71.3,30.01,NNW,337,8.3,-999.0,58,-99.99,,,0.09,Acu-Link.com,2013-08-12 20:07:00,
2013-08-12 15:22:00,88.7,71.0,30.01,WNW,292,6.8,-999.0,56,-99.99,,,0.09,Acu-Link.com,2013-08-12 20:22:00,
2013-08-12 15:38:00,89.8,71.4,30.00,NE,45,5.8,-999.0,55,-99.99,,,0.09,Acu-Link.com,2013-08-12 20:38:00,
2013-08-12 15:53:00,89.6,70.7,30.01,NE,45,8.3,-999.0,54,-99.99,,,0.09,Acu-Link.com,2013-08-12 20:53:00,
2013-08-12 16:08:00,89.4,70.0,30.01,NW,315,6.3,-999.0,53,-99.99,,,0.09,Acu-Link.com,2013-08-12 21:08:00,
2013-08-12 16:23:00,88.2,69.4,30.01,ENE,67,8.3,-999.0,54,-99.99,,,0.09,Acu-Link.com,2013-08-12 21:23:00,
2013-08-12 16:39:00,86.5,68.9,30.01,NNW,337,6.3,-999.0,56,-99.99,,,0.09,Acu-Link.com,2013-08-12 21:39:00,
2013-08-12 16:54:00,86.7,68.6,30.01,NE,45,7.3,-999.0,55,-99.99,,,0.09,Acu-Link.com,2013-08-12 21:54:00,
2013-08-12 17:09:00,86.0,66.8,30.01,NNW,337,8.9,-999.0,53,-99.99,,,0.09,Acu-Link.com,2013-08-12 22:09:00,
2013-08-12 17:24:00,86.4,68.3,30.01,NNE,22,4.2,-999.0,55,-99.99,,,0.09,Acu-Link.com,2013-08-12 22:24:00,
2013-08-12 17:39:00,84.4,67.5,30.01,NNW,337,6.8,-999.0,57,-99.99,,,0.09,Acu-Link.com,2013-08-12 22:39:00,
2013-08-12 17:55:00,83.5,66.1,30.01,SE,135,3.2,-999.0,56,-99.99,,,0.09,Acu-Link.com,2013-08-12 22:55:00,
2013-08-12 18:10:00,82.2,65.4,30.01,North,0,5.3,-999.0,57,-99.99,,,0.09,Acu-Link.com,2013-08-12 23:10:00,
2013-08-12 18:25:00,81.9,64.6,30.01,NE,45,3.7,-999.0,56,-99.99,,,0.09,Acu-Link.com,2013-08-12 23:25:00,
2013-08-12 18:41:00,81.5,64.8,30.00,NW,315,5.3,-999.0,57,-99.99,,,0.09,Acu-Link.com,2013-08-12 23:41:00,
2013-08-12 18:56:00,82.6,64.2,30.00,NNE,22,4.7,-999.0,54,-99.99,,,0.09,Acu-Link.com,2013-08-12 23:56:00,
2013-08-12 19:11:00,81.7,70.1,30.00,WSW,247,2.7,-999.0,68,-99.99,,,0.09,Acu-Link.com,2013-08-13 00:11:00,
2013-08-12 19:26:00,80.6,69.9,30.00,South,180,0.0,-999.0,70,-99.99,,,0.09,Acu-Link.com,2013-08-13 00:26:00,
2013-08-12 19:42:00,77.4,69.6,30.00,SSE,157,2.2,-999.0,77,-99.99,,,0.09,Acu-Link.com,2013-08-13 00:42:00,
2013-08-12 19:57:00,75.7,69.8,30.01,South,180,1.7,-999.0,82,-99.99,,,0.09,Acu-Link.com,2013-08-13 00:57:00,
2013-08-12 20:12:00,74.3,69.5,30.01,SSE,157,1.1,-999.0,85,-99.99,,,0.09,Acu-Link.com,2013-08-13 01:12:00,
2013-08-12 20:28:00,73.4,69.3,30.01,SSW,202,0.0,-999.0,87,-99.99,,,0.09,Acu-Link.com,2013-08-13 01:28:00,
2013-08-12 20:43:00,72.5,68.1,30.02,NNW,337,2.7,-999.0,86,-99.99,,,0.09,Acu-Link.com,2013-08-13 01:43:00,
2013-08-12 20:58:00,72.1,67.3,30.02,NNW,337,0.0,-999.0,85,-99.99,,,0.09,Acu-Link.com,2013-08-13 01:58:00,
2013-08-12 21:13:00,71.6,67.5,30.03,SSW,202,1.7,-999.0,87,-99.99,,,0.09,Acu-Link.com,2013-08-13 02:13:00,
2013-08-12 21:29:00,70.7,67.0,30.05,NNE,22,0.0,-999.0,88,-99.99,,,0.09,Acu-Link.com,2013-08-13 02:29:00,
2013-08-12 21:44:00,69.8,66.4,30.05,West,270,0.0,-999.0,89,-99.99,,,0.09,Acu-Link.com,2013-08-13 02:44:00,
2013-08-12 21:59:00,69.6,65.2,30.06,South,180,0.0,-999.0,86,-99.99,,,0.09,Acu-Link.com,2013-08-13 02:59:00,
2013-08-12 22:14:00,69.4,64.7,30.07,NNE,22,0.0,-999.0,85,-99.99,,,0.09,Acu-Link.com,2013-08-13 03:14:00,
2013-08-12 22:29:00,69.4,64.3,30.07,West,270,0.0,-999.0,84,-99.99,,,0.09,Acu-Link.com,2013-08-13 03:29:00,
2013-08-12 22:45:00,69.4,64.3,30.08,SW,225,0.0,-999.0,84,-99.99,,,0.09,Acu-Link.com,2013-08-13 03:45:00,
2013-08-12 23:00:00,68.9,63.5,30.08,NNW,337,2.7,-999.0,83,-99.99,,,0.09,Acu-Link.com,2013-08-13 04:00:00,
2013-08-12 23:15:00,68.7,63.3,30.08,NNW,337,1.7,-999.0,83,-99.99,,,0.09,Acu-Link.com,2013-08-13 04:15:00,
2013-08-12 23:30:00,68.2,63.2,30.07,ENE,67,0.0,-999.0,84,-99.99,,,0.09,Acu-Link.com,2013-08-13 04:30:00,
2013-08-12 23:45:00,68.0,63.3,30.08,ESE,112,0.0,-999.0,85,-99.99,,,0.09,Acu-Link.com,2013-08-13 04:45:00,